createdAt,value
2018-12-22T00:00:06.686Z,100346.08
2018-12-22T00:02:36.405Z,100349.58
2018-12-22T00:05:05.717Z,100347.94
2018-12-22T00:07:35.949Z,100337.81
2018-12-22T00:10:05.633Z,100339.58
2018-12-22T00:12:34.737Z,100340.77
2018-12-22T00:15:04.365Z,100337.14
2018-12-22T00:17:33.745Z,100332.25
2018-12-22T00:20:03.437Z,100344.27
2018-12-22T00:22:32.873Z,100335.33
2018-12-22T00:25:02.040Z,100336.37
2018-12-22T00:27:31.184Z,100339.87
2018-12-22T00:30:01.880Z,100331.84
2018-12-22T00:32:30.975Z,100331.06
2018-12-22T00:35:00.061Z,100332.88
2018-12-22T00:37:29.386Z,100330.48
2018-12-22T00:39:58.393Z,100325.09
2018-12-22T00:42:27.465Z,100325.42
2018-12-22T00:44:56.878Z,100324.39
2018-12-22T00:47:25.964Z,100320.11
2018-12-22T00:49:55.086Z,100325.59
2018-12-22T00:52:24.470Z,100321.92
2018-12-22T00:54:53.545Z,100317.56
2018-12-22T00:57:22.540Z,100313.56
2018-12-22T00:59:51.557Z,100310.89
2018-12-22T01:02:20.647Z,100306.44
2018-12-22T01:04:49.659Z,100314.26
2018-12-22T01:07:19.149Z,100316.56
2018-12-22T01:09:48.229Z,100307.30
2018-12-22T01:12:17.438Z,100205.48
2018-12-22T01:14:46.533Z,100308.08
2018-12-22T01:17:15.617Z,100298.95
2018-12-22T01:19:44.617Z,100311.45
2018-12-22T01:22:14.126Z,100308.53
2018-12-22T01:24:43.189Z,100305.13
2018-12-22T01:27:12.293Z,100310.07
2018-12-22T01:29:41.601Z,100305.21
2018-12-22T01:32:10.585Z,100316.56
2018-12-22T01:34:39.695Z,100309.16
2018-12-22T01:37:09.121Z,100305.63
2018-12-22T01:39:38.129Z,100306.03
2018-12-22T01:42:07.124Z,100311.92
2018-12-22T01:44:36.501Z,100310.24
2018-12-22T01:47:05.550Z,100308.52
2018-12-22T01:49:34.682Z,100303.70
2018-12-22T01:52:04.198Z,100302.75
2018-12-22T01:54:33.665Z,100305.39
2018-12-22T01:57:02.666Z,100293.12
2018-12-22T01:59:32.089Z,100302.34
2018-12-22T02:02:02.197Z,100309.20
2018-12-22T02:04:31.286Z,100306.16
2018-12-22T02:07:00.771Z,100313.56
2018-12-22T02:09:29.786Z,100315.56
2018-12-22T02:11:58.817Z,100306.33
2018-12-22T02:14:28.167Z,100310.30
2018-12-22T02:16:57.385Z,100311.61
2018-12-22T02:19:26.651Z,100315.64
2018-12-22T02:21:56.017Z,100307.16
2018-12-22T02:24:25.049Z,100314.52
2018-12-22T02:26:54.173Z,100319.50
2018-12-22T02:29:23.502Z,100310.38
2018-12-22T02:31:52.514Z,100310.28
2018-12-22T02:34:21.786Z,100305.03
2018-12-22T02:36:51.149Z,100307.66
2018-12-22T02:39:20.263Z,100305.47
2018-12-22T02:41:49.265Z,100310.52
2018-12-22T02:44:18.745Z,100295.91
2018-12-22T02:46:47.863Z,100298.13
2018-12-22T02:49:16.941Z,100299.31
2018-12-22T02:51:46.375Z,100296.73
2018-12-22T02:54:15.457Z,100295.55
2018-12-22T02:56:44.749Z,100294.78
2018-12-22T02:59:14.277Z,100294.41
2018-12-22T03:01:43.417Z,100293.23
2018-12-22T03:04:12.641Z,100292.51
2018-12-22T03:06:42.046Z,100296.05
2018-12-22T03:09:11.143Z,100293.55
2018-12-22T03:11:40.239Z,100294.13
2018-12-22T03:14:09.654Z,100302.27
2018-12-22T03:16:38.743Z,100297.37
2018-12-22T03:19:07.886Z,100296.46
2018-12-22T03:21:37.350Z,100294.50
2018-12-22T03:24:06.438Z,100292.14
2018-12-22T03:26:35.429Z,100293.38
2018-12-22T03:29:04.949Z,100286.09
2018-12-22T03:31:33.952Z,100266.20
2018-12-22T03:34:03.018Z,100295.36
2018-12-22T03:36:32.444Z,100286.86
2018-12-22T03:39:01.429Z,100289.98
2018-12-22T03:43:57.028Z,100285.77
2018-12-22T03:46:26.252Z,100291.58
2018-12-22T03:48:55.745Z,100292.84
2018-12-22T03:51:25.057Z,100295.20
2018-12-22T03:53:55.206Z,100285.77
2018-12-22T03:56:24.382Z,100288.76
2018-12-22T03:58:53.783Z,100286.63
2018-12-22T04:01:22.855Z,100295.07
2018-12-22T04:03:51.861Z,100283.09
2018-12-22T04:06:21.271Z,100279.86
2018-12-22T04:08:50.299Z,100282.64
2018-12-22T04:11:19.328Z,100286.67
2018-12-22T04:13:48.765Z,100292.71
2018-12-22T04:16:17.819Z,100284.63
2018-12-22T04:18:46.839Z,100285.00
2018-12-22T04:21:15.946Z,100282.73
2018-12-22T04:23:45.017Z,100287.77
2018-12-22T04:26:14.233Z,100282.09
2018-12-22T04:28:43.545Z,100271.55
2018-12-22T04:31:13.437Z,100277.87
2018-12-22T04:33:43.121Z,100268.20
2018-12-22T04:36:12.566Z,100267.28
2018-12-22T04:38:41.662Z,100268.00
2018-12-22T04:41:11.986Z,100269.69
2018-12-22T04:43:41.053Z,100270.23
2018-12-22T04:46:10.163Z,100270.64
2018-12-22T04:48:39.575Z,100265.87
2018-12-22T04:51:08.637Z,100263.02
2018-12-22T04:53:37.755Z,100259.11
2018-12-22T04:56:06.970Z,100255.12
2018-12-22T04:58:36.061Z,100257.97
2018-12-22T05:01:05.131Z,100258.80
2018-12-22T05:03:35.487Z,100262.38
2018-12-22T05:06:04.614Z,100263.75
2018-12-22T05:08:33.754Z,100260.02
2018-12-22T05:11:02.998Z,100263.61
2018-12-22T05:13:32.094Z,100260.97
2018-12-22T05:16:01.130Z,100264.47
2018-12-22T05:18:30.865Z,100269.02
2018-12-22T05:20:59.950Z,100265.96
2018-12-22T05:23:28.956Z,100266.28
2018-12-22T05:25:58.353Z,100268.06
2018-12-22T05:28:27.432Z,100265.78
2018-12-22T05:30:56.469Z,100264.15
2018-12-22T05:33:25.894Z,100267.15
2018-12-22T05:35:55.140Z,100268.06
2018-12-22T05:38:24.225Z,100263.61
2018-12-22T05:40:53.743Z,100268.20
2018-12-22T05:43:22.825Z,100264.64
2018-12-22T05:45:51.913Z,100267.29
2018-12-22T05:48:20.974Z,100264.30
2018-12-22T05:50:50.525Z,100263.65
2018-12-22T05:53:19.590Z,100258.94
2018-12-22T05:55:49.065Z,100263.38
2018-12-22T05:58:18.114Z,100271.69
2018-12-22T06:00:47.158Z,100269.69
2018-12-22T06:03:16.462Z,100273.86
2018-12-22T06:05:45.513Z,100274.23
2018-12-22T06:08:14.714Z,100272.50
2018-12-22T06:10:44.020Z,100275.41
2018-12-22T06:13:13.169Z,100277.45
2018-12-22T06:15:42.311Z,100279.36
2018-12-22T06:18:11.731Z,100281.54
2018-12-22T06:20:40.729Z,100286.63
2018-12-22T06:23:09.761Z,100282.99
2018-12-22T06:25:39.198Z,100280.73
2018-12-22T06:28:08.357Z,100282.50
2018-12-22T06:30:37.362Z,100281.09
2018-12-22T06:33:06.791Z,100281.91
2018-12-22T06:35:35.955Z,100284.87
2018-12-22T06:38:04.971Z,100280.55
2018-12-22T06:40:33.991Z,100280.36
2018-12-22T06:43:03.065Z,100286.95
2018-12-22T06:45:32.153Z,100285.55
2018-12-22T06:48:01.706Z,100287.91
2018-12-22T06:50:31.053Z,100295.44
2018-12-22T06:53:00.261Z,100293.27
2018-12-22T06:55:29.669Z,100297.95
2018-12-22T06:57:58.774Z,100301.58
2018-12-22T07:00:27.778Z,100304.34
2018-12-22T07:02:56.924Z,100296.03
2018-12-22T07:05:26.816Z,100303.70
2018-12-22T07:07:56.070Z,100305.23
2018-12-22T07:10:25.614Z,100308.41
2018-12-22T07:12:56.030Z,100315.73
2018-12-22T07:15:25.598Z,100309.47
2018-12-22T07:17:54.692Z,100318.28
2018-12-22T07:20:23.781Z,100315.32
2018-12-22T07:22:53.200Z,100323.14
2018-12-22T07:25:22.464Z,100325.98
2018-12-22T07:27:51.988Z,100321.91
2018-12-22T07:30:26.062Z,100320.09
2018-12-22T07:32:56.868Z,100327.98
2018-12-22T07:35:24.849Z,100327.58
2018-12-22T07:37:54.859Z,100333.34
2018-12-22T07:40:24.061Z,100329.97
2018-12-22T07:42:53.105Z,100340.42
2018-12-22T07:45:22.386Z,100323.96
2018-12-22T07:47:51.544Z,100351.28
2018-12-22T07:50:21.043Z,100347.05
2018-12-22T07:52:51.681Z,100343.09
2018-12-22T07:55:21.067Z,100344.66
2018-12-22T07:57:50.181Z,100346.84
2018-12-22T08:00:19.630Z,100347.16
2018-12-22T08:02:49.149Z,100352.10
2018-12-22T08:05:18.245Z,100346.30
2018-12-22T08:07:47.345Z,100340.31
2018-12-22T08:10:17.485Z,100337.31
2018-12-22T08:12:46.574Z,100334.77
2018-12-22T08:15:15.663Z,100336.50
2018-12-22T08:17:45.077Z,100336.58
2018-12-22T08:20:15.382Z,100340.03
2018-12-22T08:22:44.485Z,100343.16
2018-12-22T08:25:13.557Z,100337.48
2018-12-22T08:27:42.584Z,100346.50
2018-12-22T08:30:11.585Z,100344.44
2018-12-22T08:32:40.973Z,100336.41
2018-12-22T08:35:10.064Z,100345.17
2018-12-22T08:37:39.146Z,100346.45
2018-12-22T08:40:10.250Z,100339.03
2018-12-22T08:42:40.129Z,100346.34
2018-12-22T08:45:09.449Z,100348.74
2018-12-22T08:47:38.509Z,100352.06
2018-12-22T08:50:09.621Z,100359.16
2018-12-22T08:52:39.057Z,100359.02
2018-12-22T08:55:08.479Z,100358.61
2018-12-22T08:57:37.942Z,100356.02
2018-12-22T09:00:09.981Z,100353.30
2018-12-22T09:02:38.997Z,100356.70
2018-12-22T09:05:08.539Z,100355.21
2018-12-22T09:07:37.952Z,100360.38
2018-12-22T09:10:08.649Z,100361.84
2018-12-22T09:12:37.753Z,100364.70
2018-12-22T09:15:08.212Z,100374.10
2018-12-22T09:17:38.225Z,100373.36
2018-12-22T09:20:09.961Z,100367.02
2018-12-22T09:22:39.283Z,100281.83
2018-12-22T09:25:08.999Z,100371.70
2018-12-22T09:27:38.098Z,100376.02
2018-12-22T09:30:10.635Z,100377.42
2018-12-22T09:32:40.043Z,100380.41
2018-12-22T09:35:09.355Z,100372.63
2018-12-22T09:37:38.549Z,100377.65
2018-12-22T09:40:08.554Z,100368.52
2018-12-22T09:42:37.788Z,100378.85
2018-12-22T09:45:08.752Z,100376.26
2018-12-22T09:47:38.690Z,100373.09
2018-12-22T09:50:11.698Z,100377.00
2018-12-22T09:52:40.781Z,100381.52
2018-12-22T09:55:10.014Z,100387.13
2018-12-22T09:57:39.395Z,100379.37
2018-12-22T10:00:10.940Z,100380.78
2018-12-22T10:02:40.053Z,100385.43
2018-12-22T10:05:09.553Z,100382.92
2018-12-22T10:07:38.617Z,100390.08
2018-12-22T10:10:14.641Z,100383.62
2018-12-22T10:12:43.668Z,100388.77
2018-12-22T10:15:12.675Z,100387.20
2018-12-22T10:17:42.185Z,100385.76
2018-12-22T10:20:11.270Z,100379.79
2018-12-22T10:22:40.375Z,100380.94
2018-12-22T10:25:11.304Z,100380.00
2018-12-22T10:27:40.418Z,100390.91
2018-12-22T10:30:14.121Z,100393.63
2018-12-22T10:32:43.169Z,100394.48
2018-12-22T10:35:26.565Z,100387.20
2018-12-22T10:37:55.573Z,100394.41
2018-12-22T10:40:24.809Z,100396.28
2018-12-22T10:42:55.271Z,100396.84
2018-12-22T10:45:25.165Z,100402.95
2018-12-22T10:47:54.363Z,100408.91
2018-12-22T10:50:23.972Z,100410.11
2018-12-22T10:52:53.153Z,100410.56
2018-12-22T10:55:22.197Z,100409.82
2018-12-22T10:57:53.142Z,100406.20
2018-12-22T11:00:22.313Z,100406.69
2018-12-22T11:02:51.320Z,100413.23
2018-12-22T11:05:20.374Z,100415.72
2018-12-22T11:07:49.478Z,100415.94
2018-12-22T11:10:21.461Z,100412.14
2018-12-22T11:12:51.222Z,100426.02
2018-12-22T11:15:20.482Z,100424.70
2018-12-22T11:17:50.169Z,100428.20
2018-12-22T11:20:19.407Z,100433.42
2018-12-22T11:22:48.431Z,100433.50
2018-12-22T11:25:20.445Z,100436.02
2018-12-22T11:27:49.449Z,100437.00
2018-12-22T11:30:37.631Z,100442.31
2018-12-22T11:33:06.738Z,100442.47
2018-12-22T11:35:35.739Z,100442.31
2018-12-22T11:38:05.138Z,100439.69
2018-12-22T11:40:34.268Z,100443.44
2018-12-22T11:43:03.274Z,100456.48
2018-12-22T11:45:32.639Z,100449.20
2018-12-22T11:48:14.745Z,100454.92
2018-12-22T11:50:44.246Z,100388.59
2018-12-22T11:53:14.142Z,100452.16
2018-12-22T11:55:43.174Z,100452.37
2018-12-22T11:58:12.279Z,100453.64
2018-12-22T12:00:41.429Z,100456.56
2018-12-22T12:03:10.549Z,100453.52
2018-12-22T12:05:39.966Z,100460.23
2018-12-22T12:08:09.065Z,100461.42
2018-12-22T12:10:39.258Z,100465.66
2018-12-22T12:13:08.282Z,100470.65
2018-12-22T12:15:45.651Z,100468.06
2018-12-22T12:19:53.322Z,100469.78
2018-12-22T12:22:22.835Z,100474.80
2018-12-22T12:24:51.938Z,100473.72
2018-12-22T12:27:21.562Z,100471.66
2018-12-22T12:29:50.646Z,100480.39
2018-12-22T12:32:19.649Z,100482.30
2018-12-22T12:34:48.690Z,100485.84
2018-12-22T12:37:17.709Z,100455.30
2018-12-22T12:39:46.793Z,100489.84
2018-12-22T12:42:15.817Z,100481.89
2018-12-22T12:44:44.858Z,100485.27
2018-12-22T12:47:14.725Z,100488.80
2018-12-22T12:49:43.801Z,100493.45
2018-12-22T12:52:12.820Z,100500.09
2018-12-22T12:54:41.865Z,100498.69
2018-12-22T12:57:11.178Z,100500.17
2018-12-22T12:59:40.319Z,100504.17
2018-12-22T13:02:09.908Z,100506.14
2018-12-22T13:04:39.313Z,100511.00
2018-12-22T13:07:08.390Z,100509.94
2018-12-22T13:09:37.502Z,100515.58
2018-12-22T13:12:15.055Z,100520.23
2018-12-22T13:14:47.250Z,100512.20
2018-12-22T13:17:18.102Z,100513.06
2018-12-22T13:19:47.760Z,100514.80
2018-12-22T13:22:16.982Z,100523.33
2018-12-22T13:24:46.062Z,100528.27
2018-12-22T13:27:15.949Z,100537.12
2018-12-22T13:29:45.530Z,100536.72
2018-12-22T13:32:14.643Z,100542.36
2018-12-22T13:34:47.219Z,100542.52
2018-12-22T13:37:16.621Z,100545.12
2018-12-22T13:39:45.655Z,100539.59
2018-12-22T13:42:14.650Z,100551.12
2018-12-22T13:44:43.674Z,100554.06
2018-12-22T13:47:12.686Z,100559.20
2018-12-22T13:49:41.938Z,100573.91
2018-12-22T13:52:11.113Z,100565.14
2018-12-22T13:54:40.109Z,100569.58
2018-12-22T13:57:09.110Z,100567.70
2018-12-22T13:59:38.658Z,100570.44
2018-12-22T14:02:08.086Z,100571.98
2018-12-22T14:04:37.803Z,100570.28
2018-12-22T14:07:09.837Z,100578.48
2018-12-22T14:09:38.853Z,100573.45
2018-12-22T14:12:07.929Z,100579.25
2018-12-22T14:14:39.227Z,100584.03
2018-12-22T14:17:15.763Z,100588.81
2018-12-22T14:19:53.641Z,100591.66
2018-12-22T14:22:22.650Z,100588.79
2018-12-22T14:24:53.406Z,100593.40
2018-12-22T14:27:22.505Z,100594.05
2018-12-22T14:29:51.676Z,100590.52
2018-12-22T14:32:26.882Z,100589.80
2018-12-22T14:34:59.489Z,100584.24
2018-12-22T14:37:28.886Z,100582.52
2018-12-22T14:39:57.970Z,100590.66
2018-12-22T14:42:27.157Z,100599.20
2018-12-22T14:44:56.575Z,100592.17
2018-12-22T14:47:25.669Z,100596.12
2018-12-22T14:49:54.764Z,100597.72
2018-12-22T14:52:23.869Z,100593.64
2018-12-22T14:54:52.942Z,100589.48
2018-12-22T14:57:22.278Z,100603.00
2018-12-22T14:59:52.582Z,100605.91
2018-12-22T15:02:21.666Z,100604.03
2018-12-22T15:04:50.757Z,100609.72
2018-12-22T15:07:20.178Z,100612.88
2018-12-22T15:09:49.245Z,100616.89
2018-12-22T15:12:18.349Z,100618.11
2018-12-22T15:14:47.440Z,100618.55
2018-12-22T15:17:16.549Z,100621.16
2018-12-22T15:19:46.038Z,100621.61
2018-12-22T15:22:15.370Z,100627.59
2018-12-22T15:24:44.637Z,100635.98
2018-12-22T15:27:13.676Z,100643.36
2018-12-22T15:29:42.764Z,100642.47
2018-12-22T15:32:11.774Z,100643.05
2018-12-22T15:34:40.769Z,100649.39
2018-12-22T15:37:10.641Z,100652.58
2018-12-22T15:39:39.701Z,100653.32
2018-12-22T15:42:08.819Z,100652.84
2018-12-22T15:44:38.014Z,100659.06
2018-12-22T15:47:07.176Z,100664.20
2018-12-22T15:49:36.181Z,100659.80
2018-12-22T15:52:05.626Z,100664.07
2018-12-22T15:54:34.654Z,100663.69
2018-12-22T15:57:03.725Z,100674.75
2018-12-22T15:59:32.963Z,100668.14
2018-12-22T16:02:02.071Z,100673.20
2018-12-22T16:04:31.173Z,100672.89
2018-12-22T16:07:00.199Z,100680.77
2018-12-22T16:09:29.275Z,100671.67
2018-12-22T16:11:58.374Z,100682.44
2018-12-22T16:14:27.901Z,100679.78
2018-12-22T16:16:56.982Z,100680.22
2018-12-22T16:19:26.138Z,100684.23
2018-12-22T16:21:55.298Z,100688.20
2018-12-22T16:24:24.374Z,100683.03
2018-12-22T16:26:53.454Z,100686.92
2018-12-22T16:29:28.517Z,100690.84
2018-12-22T16:31:57.601Z,100697.86
2018-12-22T16:34:26.686Z,100694.34
2018-12-22T16:36:55.725Z,100693.95
2018-12-22T16:39:24.737Z,100689.61
2018-12-22T16:41:54.130Z,100694.81
2018-12-22T16:44:23.470Z,100694.27
2018-12-22T16:46:52.685Z,100696.47
2018-12-22T16:49:21.734Z,100700.91
2018-12-22T16:51:50.979Z,100707.63
2018-12-22T16:54:20.297Z,100706.98
2018-12-22T16:56:49.753Z,100709.22
2018-12-22T16:59:19.185Z,100707.12
2018-12-22T17:02:00.954Z,100714.53
2018-12-22T17:04:30.477Z,100711.41
2018-12-22T17:06:59.491Z,100715.77
2018-12-22T17:09:28.549Z,100717.22
2018-12-22T17:11:57.669Z,100708.25
2018-12-22T17:14:26.869Z,100716.67
2018-12-22T17:16:56.341Z,100725.77
2018-12-22T17:19:25.579Z,100725.55
2018-12-22T17:22:10.925Z,100733.25
2018-12-22T17:24:56.725Z,100723.14
2018-12-22T17:27:25.744Z,100720.64
2018-12-22T17:29:54.936Z,100721.73
2018-12-22T17:32:24.346Z,100724.09
2018-12-22T17:34:53.354Z,100727.66
2018-12-22T17:37:22.365Z,100724.16
2018-12-22T17:39:53.468Z,100730.81
2018-12-22T17:42:22.646Z,100728.76
2018-12-22T17:44:51.763Z,100736.84
2018-12-22T17:47:21.888Z,100734.09
2018-12-22T17:49:50.928Z,100731.09
2018-12-22T17:52:19.961Z,100733.47
2018-12-22T17:54:49.022Z,100739.48
2018-12-22T17:57:18.132Z,100738.93
2018-12-22T17:59:47.510Z,100745.05
2018-12-22T18:02:16.978Z,100748.26
2018-12-22T18:04:46.028Z,100757.19
2018-12-22T18:07:15.151Z,100753.56
2018-12-22T18:09:44.214Z,100759.17
2018-12-22T18:12:13.713Z,100760.33
2018-12-22T18:14:42.838Z,100767.64
2018-12-22T18:17:11.913Z,100769.53
2018-12-22T18:19:40.934Z,100770.27
2018-12-22T18:22:10.105Z,100769.83
2018-12-22T18:24:39.302Z,100769.77
2018-12-22T18:27:08.500Z,100762.64
2018-12-22T18:29:38.015Z,100765.33
2018-12-22T18:32:07.193Z,100771.91
2018-12-22T18:34:36.306Z,100777.93
2018-12-22T18:37:05.855Z,100779.92
2018-12-22T18:39:34.893Z,100779.86
2018-12-22T18:42:04.094Z,100780.73
2018-12-22T18:44:33.221Z,100779.19
2018-12-22T18:47:02.810Z,100779.48
2018-12-22T18:49:31.895Z,100777.30
2018-12-22T18:52:02.134Z,100783.89
2018-12-22T18:54:31.211Z,100779.43
2018-12-22T18:57:00.234Z,100781.11
2018-12-22T18:59:30.424Z,100781.88
2018-12-22T19:01:59.498Z,100782.78
2018-12-22T19:04:28.713Z,100786.25
2018-12-22T19:06:57.898Z,100787.77
2018-12-22T19:09:29.589Z,100785.85
2018-12-22T19:12:00.153Z,100786.63
2018-12-22T19:14:29.429Z,100778.20
2018-12-22T19:16:58.413Z,100787.39
2018-12-22T19:19:27.530Z,100783.63
2018-12-22T19:21:56.786Z,100787.42
2018-12-22T19:24:25.861Z,100785.69
2018-12-22T19:26:55.401Z,100784.11
2018-12-22T19:29:24.485Z,100791.02
2018-12-22T19:31:54.575Z,100784.86
2018-12-22T19:34:24.835Z,100795.36
2018-12-22T19:36:53.921Z,100796.81
2018-12-22T19:39:23.085Z,100799.92
2018-12-22T19:41:52.938Z,100796.09
2018-12-22T19:44:22.052Z,100802.11
2018-12-22T19:46:51.212Z,100802.80
2018-12-22T19:49:20.449Z,100798.88
2018-12-22T19:51:50.420Z,100795.26
2018-12-22T19:54:19.526Z,100800.17
2018-12-22T19:56:49.412Z,100802.83
2018-12-22T19:59:18.421Z,100803.73
2018-12-22T20:01:47.525Z,100801.52
2018-12-22T20:04:17.946Z,100801.88
2018-12-22T20:06:47.049Z,100803.16
2018-12-22T20:09:18.267Z,100801.78
2018-12-22T20:11:47.906Z,100816.37
2018-12-22T20:14:17.007Z,100818.02
2018-12-22T20:16:46.409Z,100820.10
2018-12-22T20:19:15.487Z,100818.78
2018-12-22T20:21:44.583Z,100820.07
2018-12-22T20:24:14.415Z,100822.26
2018-12-22T20:26:43.430Z,100820.10
2018-12-22T20:29:12.673Z,100819.20
2018-12-22T20:31:41.810Z,100827.83
2018-12-22T20:34:11.901Z,100829.08
2018-12-22T20:36:40.997Z,100832.55
2018-12-22T20:39:10.374Z,100825.96
2018-12-22T20:41:39.410Z,100831.23
2018-12-22T20:44:08.870Z,100832.10
2018-12-22T20:46:37.922Z,100828.92
2018-12-22T20:49:06.985Z,100832.58
2018-12-22T20:51:36.082Z,100831.30
2018-12-22T20:54:05.305Z,100835.38
2018-12-22T20:56:35.289Z,100840.16
2018-12-22T20:59:04.410Z,100841.81
2018-12-22T21:01:33.525Z,100841.50
2018-12-22T21:04:02.578Z,100843.87
2018-12-22T21:06:34.378Z,100841.66
2018-12-22T21:09:05.521Z,100838.13
2018-12-22T21:11:34.574Z,100843.40
2018-12-22T21:14:03.805Z,100844.89
2018-12-22T21:16:32.876Z,100842.77
2018-12-22T21:19:01.989Z,100845.84
2018-12-22T21:21:30.989Z,100834.77
2018-12-22T21:24:00.947Z,100846.23
2018-12-22T21:26:29.974Z,100847.61
2018-12-22T21:28:58.977Z,100848.56
2018-12-22T21:31:28.057Z,100851.23
2018-12-22T21:33:57.177Z,100855.57
2018-12-22T21:36:26.184Z,100854.59
2018-12-22T21:38:55.237Z,100861.26
2018-12-22T21:41:24.358Z,100858.73
2018-12-22T21:43:53.759Z,100856.02
2018-12-22T21:46:22.937Z,100858.47
2018-12-22T21:48:52.460Z,100853.77
2018-12-22T21:51:21.637Z,100858.06
2018-12-22T21:53:50.741Z,100860.55
2018-12-22T21:56:19.853Z,100854.98
2018-12-22T21:58:48.910Z,100861.52
2018-12-22T22:01:18.022Z,100863.52
2018-12-22T22:03:47.413Z,100869.16
2018-12-22T22:06:16.522Z,100863.94
2018-12-22T22:08:45.621Z,100864.39
2018-12-22T22:11:14.721Z,100871.63
2018-12-22T22:13:43.809Z,100882.25
2018-12-22T22:16:12.900Z,100885.08
2018-12-22T22:18:42.020Z,100885.47
2018-12-22T22:21:11.104Z,100897.32
2018-12-22T22:23:40.301Z,100897.87
2018-12-22T22:26:09.701Z,100878.91
2018-12-22T22:28:38.789Z,100892.08
2018-12-22T22:31:07.962Z,100885.58
2018-12-22T22:33:37.001Z,100893.29
2018-12-22T22:36:06.010Z,100892.31
2018-12-22T22:38:35.082Z,100896.18
2018-12-22T22:41:05.194Z,100886.84
2018-12-22T22:43:34.272Z,100888.13
2018-12-22T22:46:03.373Z,100890.25
2018-12-22T22:48:32.681Z,100889.33
2018-12-22T22:51:01.687Z,100890.67
2018-12-22T22:53:30.759Z,100898.67
2018-12-22T22:56:00.150Z,100896.62
2018-12-22T22:58:29.253Z,100896.71
2018-12-22T23:00:58.453Z,100898.95
2018-12-22T23:03:28.559Z,100895.00
2018-12-22T23:05:57.589Z,100901.56
2018-12-22T23:08:27.679Z,100902.01
2018-12-22T23:10:56.982Z,100902.01
2018-12-22T23:13:26.075Z,100901.62
2018-12-22T23:15:55.090Z,100901.22
2018-12-22T23:18:24.198Z,100896.45
2018-12-22T23:20:53.197Z,100900.46
2018-12-22T23:23:22.205Z,100900.91
2018-12-22T23:25:51.273Z,100907.52
2018-12-22T23:28:20.283Z,100895.80
2018-12-22T23:30:49.285Z,100898.48
2018-12-22T23:33:18.753Z,100901.13
2018-12-22T23:35:47.853Z,100895.44
2018-12-22T23:38:16.917Z,100898.94
2018-12-22T23:40:46.447Z,100903.75
2018-12-22T23:43:15.638Z,100902.41
2018-12-22T23:45:44.845Z,100907.85
2018-12-22T23:48:14.249Z,100905.25
2018-12-22T23:50:43.445Z,100906.41
2018-12-22T23:53:12.737Z,100899.39
2018-12-22T23:55:42.146Z,100903.89
2018-12-22T23:58:11.337Z,100899.69
